Time;durP1;ratioP1;P1;durP2;ratioP2;P2;SDS_P1;SDS_P2;PMS_P1;PMS_P2;Temp;Humidity;BMP_temperature;BMP_pressure;BME280_temperature;BME280_humidity;BME280_pressure;Samples;Min_cycle;Max_cycle;Signal;HPM_P1;HPM_P2
2023/08/18 00:00:31;;;;;;;;;;;22.10;85.60;;;;;;4987889;28;19940;-68
2023/08/18 00:02:59;;;;;;;;;;;22.10;85.60;;;;;;4989950;28;19933;-67
2023/08/18 00:05:26;;;;;;;;;;;22.10;85.50;;;;;;4990797;28;20266;-68
2023/08/18 00:07:54;;;;;;;;;;;22.10;85.40;;;;;;4989949;28;20397;-68
2023/08/18 00:10:21;;;;;;;;;;;22.20;85.40;;;;;;4990172;28;20315;-69
2023/08/18 00:12:48;;;;;;;;;;;22.10;85.50;;;;;;4987652;28;19937;-68
2023/08/18 00:15:15;;;;;;;;;;;22.10;85.50;;;;;;4990370;28;19965;-69
2023/08/18 00:17:42;;;;;;;;;;;22.00;85.70;;;;;;4987498;28;19929;-68
2023/08/18 00:20:11;;;;;;;;;;;22.00;85.60;;;;;;4988600;28;20282;-68
2023/08/18 00:22:39;;;;;;;;;;;22.00;85.60;;;;;;4983356;28;19981;-68
2023/08/18 00:25:07;;;;;;;;;;;22.00;85.60;;;;;;4989790;28;19936;-69
2023/08/18 00:27:36;;;;;;;;;;;21.90;85.50;;;;;;4989996;28;19992;-67
2023/08/18 00:30:03;;;;;;;;;;;21.90;85.70;;;;;;4987341;28;19972;-69
2023/08/18 00:32:31;;;;;;;;;;;21.90;85.70;;;;;;4984967;28;19930;-69
2023/08/18 00:34:58;;;;;;;;;;;21.80;85.70;;;;;;4987434;28;19926;-70
2023/08/18 00:37:27;;;;;;;;;;;21.80;85.80;;;;;;4989737;28;20397;-69
2023/08/18 00:39:54;;;;;;;;;;;21.80;85.70;;;;;;4986215;28;20395;-69
2023/08/18 00:42:21;;;;;;;;;;;21.80;85.80;;;;;;5002019;28;19929;-70
2023/08/18 00:44:48;;;;;;;;;;;21.80;85.60;;;;;;4983331;28;19934;-69
2023/08/18 00:47:15;;;;;;;;;;;21.80;85.60;;;;;;4987944;28;19933;-70
2023/08/18 00:49:42;;;;;;;;;;;21.70;85.70;;;;;;4999104;28;20567;-71
2023/08/18 00:52:10;;;;;;;;;;;21.70;85.70;;;;;;4986725;28;19930;-70
2023/08/18 00:54:44;;;;;;;;;;;21.60;85.70;;;;;;4986911;28;19936;-68
2023/08/18 00:57:12;;;;;;;;;;;21.60;85.80;;;;;;4985509;28;20040;-69
2023/08/18 00:59:39;;;;;;;;;;;21.60;85.70;;;;;;4985582;28;19930;-69
2023/08/18 01:02:06;;;;;;;;;;;21.60;85.80;;;;;;4984828;28;19961;-70
2023/08/18 01:04:33;;;;;;;;;;;21.60;85.70;;;;;;4986259;28;19952;-71
2023/08/18 01:07:00;;;;;;;;;;;21.60;85.70;;;;;;4983788;28;19941;-70
2023/08/18 01:09:28;;;;;;;;;;;21.50;85.90;;;;;;5001550;28;19934;-71
2023/08/18 01:12:08;;;;;;;;;;;21.50;85.90;;;;;;4987518;28;20416;-69
2023/08/18 01:14:38;;;;;;;;;;;21.50;85.90;;;;;;4984021;28;20274;-70
2023/08/18 01:17:07;;;;;;;;;;;21.50;85.90;;;;;;4984101;28;19930;-69
2023/08/18 01:19:35;;;;;;;;;;;21.50;85.80;;;;;;4983981;28;19952;-69
2023/08/18 01:22:02;;;;;;;;;;;21.50;85.70;;;;;;4987711;28;20070;-70
2023/08/18 01:24:34;;;;;;;;;;;21.50;85.70;;;;;;4989058;28;19929;-71
2023/08/18 01:27:02;;;;;;;;;;;21.50;85.60;;;;;;4988092;28;19961;-71
2023/08/18 01:29:29;;;;;;;;;;;21.40;85.70;;;;;;4986086;28;20014;-70
2023/08/18 01:31:58;;;;;;;;;;;21.40;85.80;;;;;;4987460;28;19926;-69
2023/08/18 01:34:26;;;;;;;;;;;21.30;85.80;;;;;;4988619;28;19926;-69
2023/08/18 01:36:55;;;;;;;;;;;21.30;85.80;;;;;;4989330;28;19940;-69
2023/08/18 01:39:23;;;;;;;;;;;21.40;85.70;;;;;;4988767;28;19933;-70
2023/08/18 01:41:52;;;;;;;;;;;21.30;85.80;;;;;;5000717;28;20441;-70
2023/08/18 01:44:20;;;;;;;;;;;21.30;85.50;;;;;;4983035;28;19941;-71
2023/08/18 01:46:50;;;;;;;;;;;21.30;85.40;;;;;;4981913;28;19940;-70
2023/08/18 01:49:18;;;;;;;;;;;21.30;85.60;;;;;;4985488;28;19934;-70
2023/08/18 01:51:45;;;;;;;;;;;21.30;85.60;;;;;;4985070;28;20548;-69
2023/08/18 01:54:13;;;;;;;;;;;21.30;85.60;;;;;;4985004;28;20005;-70
2023/08/18 01:56:46;;;;;;;;;;;21.20;85.70;;;;;;4988611;28;19936;-70
2023/08/18 01:59:16;;;;;;;;;;;21.20;85.70;;;;;;5003359;28;19953;-69
2023/08/18 02:01:44;;;;;;;;;;;21.20;85.70;;;;;;4987898;28;19925;-70
2023/08/18 02:04:11;;;;;;;;;;;21.20;85.70;;;;;;4988547;28;19930;-70
2023/08/18 02:06:38;;;;;;;;;;;21.10;85.70;;;;;;4985329;28;19934;-70
2023/08/18 02:09:05;;;;;;;;;;;21.10;85.80;;;;;;4986160;28;20382;-70
2023/08/18 02:11:33;;;;;;;;;;;21.10;85.70;;;;;;4987298;28;19929;-72
2023/08/18 02:14:03;;;;;;;;;;;21.10;85.70;;;;;;4980915;28;19934;-70
2023/08/18 02:16:32;;;;;;;;;;;21.10;85.80;;;;;;4999576;28;20020;-71
2023/08/18 02:18:59;;;;;;;;;;;21.10;85.80;;;;;;4988663;28;20012;-71
2023/08/18 02:21:30;;;;;;;;;;;21.10;85.80;;;;;;4984645;28;19926;-71
2023/08/18 02:23:58;;;;;;;;;;;21.10;85.70;;;;;;4987684;28;19936;-70
2023/08/18 02:26:32;;;;;;;;;;;21.00;85.70;;;;;;4987601;28;19926;-70
2023/08/18 02:28:59;;;;;;;;;;;21.00;85.90;;;;;;4989550;28;19996;-70
2023/08/18 02:31:26;;;;;;;;;;;21.00;85.70;;;;;;4988449;28;19925;-70
2023/08/18 02:33:55;;;;;;;;;;;20.90;85.80;;;;;;4987984;28;19926;-71
2023/08/18 02:36:22;;;;;;;;;;;20.90;85.80;;;;;;4987908;28;20012;-71
2023/08/18 02:38:50;;;;;;;;;;;20.90;85.70;;;;;;4988600;28;19925;-70
2023/08/18 02:41:18;;;;;;;;;;;20.90;85.90;;;;;;4987220;28;19959;-70
2023/08/18 02:43:47;;;;;;;;;;;20.90;85.80;;;;;;4988986;28;19926;-70
2023/08/18 02:46:14;;;;;;;;;;;20.90;85.70;;;;;;4985808;28;19925;-71
2023/08/18 02:48:41;;;;;;;;;;;20.90;85.70;;;;;;4986925;28;19984;-71
2023/08/18 02:51:10;;;;;;;;;;;20.90;85.70;;;;;;4986453;28;20024;-71
2023/08/18 02:53:38;;;;;;;;;;;20.80;85.70;;;;;;4987042;28;20508;-72
2023/08/18 02:56:05;;;;;;;;;;;20.80;85.70;;;;;;5002306;28;19929;-70
2023/08/18 02:58:33;;;;;;;;;;;20.80;85.70;;;;;;4986024;28;19934;-71
2023/08/18 03:01:02;;;;;;;;;;;20.80;85.70;;;;;;4987813;28;19926;-71
2023/08/18 03:03:29;;;;;;;;;;;20.80;85.70;;;;;;4986097;28;20020;-72
2023/08/18 03:05:59;;;;;;;;;;;20.70;85.70;;;;;;4988598;28;19933;-72
2023/08/18 03:08:28;;;;;;;;;;;20.70;85.80;;;;;;4985456;28;19933;-72
2023/08/18 03:10:57;;;;;;;;;;;20.70;85.80;;;;;;5003350;28;19930;-72
2023/08/18 03:13:24;;;;;;;;;;;20.70;85.70;;;;;;4986505;28;20032;-71
2023/08/18 03:15:51;;;;;;;;;;;20.60;85.80;;;;;;4987808;28;20580;-72
2023/08/18 03:18:18;;;;;;;;;;;20.60;85.70;;;;;;4986089;28;19933;-71
2023/08/18 03:20:46;;;;;;;;;;;20.60;85.70;;;;;;4988101;28;19930;-71
2023/08/18 03:23:14;;;;;;;;;;;20.60;85.70;;;;;;5001084;28;19930;-71
2023/08/18 03:25:43;;;;;;;;;;;20.60;85.80;;;;;;4981834;28;19926;-71
2023/08/18 03:28:11;;;;;;;;;;;20.60;85.80;;;;;;5001758;28;19936;-73
2023/08/18 03:30:38;;;;;;;;;;;20.50;85.80;;;;;;4985449;28;20362;-70
2023/08/18 03:33:06;;;;;;;;;;;20.50;85.80;;;;;;4985808;28;20393;-69
2023/08/18 03:35:35;;;;;;;;;;;20.50;85.80;;;;;;4986413;28;20024;-71
2023/08/18 03:38:03;;;;;;;;;;;20.60;85.70;;;;;;5002733;28;20009;-70
2023/08/18 03:40:32;;;;;;;;;;;20.50;85.60;;;;;;4988698;28;19937;-71
2023/08/18 03:43:00;;;;;;;;;;;20.50;85.60;;;;;;5003852;28;20012;-71
2023/08/18 03:45:28;;;;;;;;;;;20.50;85.50;;;;;;4988366;28;19969;-71
2023/08/18 03:47:56;;;;;;;;;;;20.60;85.20;;;;;;4988296;28;19936;-71
2023/08/18 03:50:23;;;;;;;;;;;20.50;85.40;;;;;;4967772;28;20016;-71
2023/08/18 03:52:50;;;;;;;;;;;20.50;85.30;;;;;;4969004;28;20337;-71
2023/08/18 03:55:19;;;;;;;;;;;20.40;85.50;;;;;;4960042;28;20366;-71
2023/08/18 03:57:46;;;;;;;;;;;20.40;85.30;;;;;;4986998;28;19931;-71
2023/08/18 04:00:17;;;;;;;;;;;20.40;85.40;;;;;;4986163;28;19930;-63
2023/08/18 04:02:45;;;;;;;;;;;20.40;85.50;;;;;;4986595;28;19926;-64
2023/08/18 04:05:15;;;;;;;;;;;20.30;85.70;;;;;;4988166;28;19966;-64
2023/08/18 04:07:43;;;;;;;;;;;20.30;85.80;;;;;;4986670;28;20297;-64
2023/08/18 04:10:10;;;;;;;;;;;20.30;85.80;;;;;;4987021;28;20782;-64
2023/08/18 04:12:37;;;;;;;;;;;20.30;85.70;;;;;;4987565;28;20377;-65
2023/08/18 04:15:05;;;;;;;;;;;20.30;85.60;;;;;;4989155;28;19934;-63
2023/08/18 04:17:33;;;;;;;;;;;20.30;85.60;;;;;;4990772;28;19996;-64
2023/08/18 04:20:01;;;;;;;;;;;20.20;85.80;;;;;;5007083;28;19926;-64
2023/08/18 04:22:28;;;;;;;;;;;20.20;85.90;;;;;;5007058;28;19926;-63
2023/08/18 04:24:55;;;;;;;;;;;20.20;85.90;;;;;;5005604;28;19934;-64
2023/08/18 04:27:22;;;;;;;;;;;20.20;85.80;;;;;;4989729;28;19936;-64
2023/08/18 04:29:49;;;;;;;;;;;20.10;85.80;;;;;;4991308;28;20444;-63
2023/08/18 04:32:17;;;;;;;;;;;20.10;85.90;;;;;;4990454;28;20388;-65
2023/08/18 04:34:45;;;;;;;;;;;20.10;85.90;;;;;;4991774;28;19929;-64
2023/08/18 04:37:15;;;;;;;;;;;20.20;85.90;;;;;;4989816;28;19952;-64
2023/08/18 04:39:42;;;;;;;;;;;20.10;85.80;;;;;;4990081;28;20012;-62
2023/08/18 04:42:09;;;;;;;;;;;20.10;85.90;;;;;;4990112;28;19930;-63
2023/08/18 04:44:37;;;;;;;;;;;20.10;85.90;;;;;;4989790;28;19925;-63
2023/08/18 04:47:05;;;;;;;;;;;20.20;85.80;;;;;;5000922;28;20017;-65
2023/08/18 04:49:32;;;;;;;;;;;20.20;85.80;;;;;;4991523;28;19933;-64
2023/08/18 04:52:00;;;;;;;;;;;20.20;85.80;;;;;;4989382;28;19937;-64
2023/08/18 04:54:28;;;;;;;;;;;20.10;85.70;;;;;;4968459;28;19932;-63
2023/08/18 04:57:00;;;;;;;;;;;20.10;85.70;;;;;;4970111;28;19967;-63
2023/08/18 04:59:28;;;;;;;;;;;20.10;85.70;;;;;;4970798;28;19932;-64
2023/08/18 05:02:05;;;;;;;;;;;20.10;85.70;;;;;;4991050;28;19929;-63
2023/08/18 05:04:43;;;;;;;;;;;20.20;85.50;;;;;;4990115;28;20341;-63
2023/08/18 05:07:22;;;;;;;;;;;20.20;85.60;;;;;;4971205;28;19929;-64
2023/08/18 05:09:58;;;;;;;;;;;20.10;85.80;;;;;;4970081;28;20464;-63
2023/08/18 05:12:36;;;;;;;;;;;20.10;85.80;;;;;;4957172;28;19926;-64
2023/08/18 05:15:16;;;;;;;;;;;20.20;85.60;;;;;;4989585;28;20739;-64
2023/08/18 05:17:53;;;;;;;;;;;20.20;85.70;;;;;;4990269;28;19926;-62
2023/08/18 05:20:36;;;;;;;;;;;20.20;85.60;;;;;;4990193;28;19934;-63
2023/08/18 05:23:21;;;;;;;;;;;20.20;85.60;;;;;;4990949;28;19954;-63
2023/08/18 05:25:59;;;;;;;;;;;20.20;85.50;;;;;;4991337;28;19933;-63
2023/08/18 05:28:32;;;;;;;;;;;20.20;85.70;;;;;;4990509;28;19934;-63
2023/08/18 05:31:06;;;;;;;;;;;20.20;85.80;;;;;;4987820;28;19925;-64
2023/08/18 05:33:41;;;;;;;;;;;20.20;85.70;;;;;;4990176;28;19936;-63
2023/08/18 05:36:15;;;;;;;;;;;20.30;85.80;;;;;;4987024;28;19930;-62
2023/08/18 05:39:00;;;;;;;;;;;20.30;85.70;;;;;;4990444;28;19933;-64
2023/08/18 05:41:38;;;;;;;;;;;20.30;85.90;;;;;;4990881;28;19934;-63
2023/08/18 05:44:20;;;;;;;;;;;20.30;85.90;;;;;;4989792;28;19934;-64
2023/08/18 05:46:52;;;;;;;;;;;20.30;85.90;;;;;;4985685;28;19929;-64
2023/08/18 05:49:30;;;;;;;;;;;20.30;85.80;;;;;;4988836;28;19930;-64
2023/08/18 05:52:06;;;;;;;;;;;20.30;86.10;;;;;;4989586;28;19926;-65
2023/08/18 05:54:46;;;;;;;;;;;20.30;85.90;;;;;;4988720;28;19969;-65
2023/08/18 05:57:18;;;;;;;;;;;20.40;85.80;;;;;;4988494;28;20814;-63
2023/08/18 05:59:51;;;;;;;;;;;20.40;85.70;;;;;;4989723;28;19968;-64
2023/08/18 06:02:42;;;;;;;;;;;20.50;85.50;;;;;;4987198;28;20455;-65
2023/08/18 06:05:28;;;;;;;;;;;20.50;85.60;;;;;;4988884;28;20049;-63
2023/08/18 06:08:03;;;;;;;;;;;20.50;85.60;;;;;;4986670;28;19930;-63
2023/08/18 06:10:45;;;;;;;;;;;20.60;85.50;;;;;;4989557;28;20448;-63
2023/08/18 06:13:19;;;;;;;;;;;20.60;85.20;;;;;;4989421;28;19926;-63
2023/08/18 06:15:55;;;;;;;;;;;20.60;85.10;;;;;;4988141;28;19933;-62
2023/08/18 06:18:33;;;;;;;;;;;20.60;85.00;;;;;;4988095;28;19930;-64
2023/08/18 06:21:10;;;;;;;;;;;20.70;85.10;;;;;;4989085;28;20378;-68
2023/08/18 06:23:47;;;;;;;;;;;20.70;84.80;;;;;;4989274;28;19934;-68
2023/08/18 06:26:23;;;;;;;;;;;20.80;84.60;;;;;;4988119;28;19930;-68
2023/08/18 06:28:58;;;;;;;;;;;20.80;84.70;;;;;;4989154;28;20012;-68
2023/08/18 06:31:28;;;;;;;;;;;20.90;84.40;;;;;;4988355;28;20396;-68
2023/08/18 06:33:56;;;;;;;;;;;20.90;84.40;;;;;;4986922;28;20305;-68
2023/08/18 06:36:23;;;;;;;;;;;21.00;84.20;;;;;;4987013;28;19926;-68
2023/08/18 06:38:51;;;;;;;;;;;21.00;84.30;;;;;;4987715;28;19929;-67
2023/08/18 06:41:20;;;;;;;;;;;21.10;84.20;;;;;;4987349;28;19929;-69
2023/08/18 06:43:47;;;;;;;;;;;21.10;83.90;;;;;;4986071;28;19930;-68
2023/08/18 06:46:16;;;;;;;;;;;21.20;83.90;;;;;;4989107;28;19930;-68
2023/08/18 06:48:43;;;;;;;;;;;21.40;83.20;;;;;;4988923;28;19929;-68
2023/08/18 06:51:10;;;;;;;;;;;21.60;83.40;;;;;;4987536;28;19930;-69
2023/08/18 06:53:37;;;;;;;;;;;21.60;83.10;;;;;;4989374;28;19936;-69
2023/08/18 06:56:05;;;;;;;;;;;21.80;82.80;;;;;;4989381;28;19926;-68
2023/08/18 06:58:34;;;;;;;;;;;22.00;82.50;;;;;;4988377;28;19936;-70
2023/08/18 07:01:01;;;;;;;;;;;22.10;82.30;;;;;;4983303;28;19934;-69
2023/08/18 07:03:28;;;;;;;;;;;22.30;81.80;;;;;;4980289;28;20382;-68
2023/08/18 07:05:55;;;;;;;;;;;22.40;81.30;;;;;;4987259;28;19926;-69
2023/08/18 07:08:23;;;;;;;;;;;22.60;81.30;;;;;;4987299;28;19925;-69
2023/08/18 07:10:50;;;;;;;;;;;22.70;80.80;;;;;;4987896;28;20021;-69
2023/08/18 07:13:17;;;;;;;;;;;22.80;80.70;;;;;;4986729;28;19926;-70
2023/08/18 07:15:46;;;;;;;;;;;22.90;80.50;;;;;;4985031;28;19933;-69
2023/08/18 07:18:13;;;;;;;;;;;23.00;79.90;;;;;;4982186;28;19933;-71
2023/08/18 07:20:42;;;;;;;;;;;23.20;79.70;;;;;;4983580;28;20658;-70
2023/08/18 07:23:09;;;;;;;;;;;23.30;79.00;;;;;;4984669;28;19934;-70
2023/08/18 07:25:37;;;;;;;;;;;23.30;79.10;;;;;;4987026;28;19969;-70
2023/08/18 07:28:04;;;;;;;;;;;23.50;78.70;;;;;;4984268;28;19969;-70
2023/08/18 07:30:32;;;;;;;;;;;23.70;78.40;;;;;;4981486;28;20337;-67
2023/08/18 07:33:00;;;;;;;;;;;23.80;78.00;;;;;;4984441;28;19937;-66
2023/08/18 07:35:28;;;;;;;;;;;24.00;77.60;;;;;;4986805;28;19934;-66
2023/08/18 07:37:56;;;;;;;;;;;24.10;77.20;;;;;;4989245;28;19926;-66
2023/08/18 07:40:23;;;;;;;;;;;24.30;76.70;;;;;;4987728;28;19925;-65
2023/08/18 07:42:50;;;;;;;;;;;24.40;76.10;;;;;;4988018;28;20004;-66
2023/08/18 07:45:18;;;;;;;;;;;24.50;75.50;;;;;;4986425;28;19933;-65
2023/08/18 07:47:46;;;;;;;;;;;24.60;76.00;;;;;;4988463;28;21855;-65
2023/08/18 07:50:15;;;;;;;;;;;24.70;75.40;;;;;;4992522;28;20012;-65
2023/08/18 07:52:42;;;;;;;;;;;24.80;74.70;;;;;;4992129;28;19969;-65
2023/08/18 07:55:10;;;;;;;;;;;24.80;74.40;;;;;;4991555;28;19941;-66
2023/08/18 07:57:37;;;;;;;;;;;24.90;74.10;;;;;;4992099;28;20354;-66
2023/08/18 08:00:07;;;;;;;;;;;25.10;73.40;;;;;;4991430;28;19937;-67
2023/08/18 08:02:39;;;;;;;;;;;25.10;73.60;;;;;;4990789;28;20023;-66
2023/08/18 08:05:07;;;;;;;;;;;25.20;73.00;;;;;;4992273;28;19933;-66
2023/08/18 08:07:38;;;;;;;;;;;25.30;72.80;;;;;;4990298;28;19926;-64
2023/08/18 08:10:06;;;;;;;;;;;25.50;72.20;;;;;;4990818;28;19965;-67
2023/08/18 08:12:34;;;;;;;;;;;25.60;71.40;;;;;;4991420;28;19930;-65
2023/08/18 08:15:02;;;;;;;;;;;25.80;71.20;;;;;;4989242;28;20048;-66
2023/08/18 08:17:30;;;;;;;;;;;25.80;70.90;;;;;;4992231;28;20013;-67
2023/08/18 08:19:58;;;;;;;;;;;25.90;71.00;;;;;;4991413;28;19930;-66
2023/08/18 08:22:25;;;;;;;;;;;26.00;71.20;;;;;;4991294;28;19929;-65
2023/08/18 08:24:54;;;;;;;;;;;26.00;71.50;;;;;;4991156;28;19932;-64
2023/08/18 08:27:22;;;;;;;;;;;26.10;71.20;;;;;;4990348;28;19930;-66
2023/08/18 08:29:50;;;;;;;;;;;26.30;70.10;;;;;;4991796;28;19929;-65
2023/08/18 08:32:17;;;;;;;;;;;26.40;69.20;;;;;;4991569;28;19926;-66
2023/08/18 08:34:48;;;;;;;;;;;26.50;69.30;;;;;;4991436;28;19926;-67
2023/08/18 08:37:15;;;;;;;;;;;26.60;69.20;;;;;;4990209;28;20803;-65
2023/08/18 08:39:42;;;;;;;;;;;26.70;68.50;;;;;;4990405;28;19930;-71
2023/08/18 08:42:11;;;;;;;;;;;26.80;67.90;;;;;;4992008;28;19952;-71
2023/08/18 08:44:38;;;;;;;;;;;26.80;67.90;;;;;;4990699;28;19960;-71
2023/08/18 08:47:06;;;;;;;;;;;26.90;67.80;;;;;;4992025;28;19957;-72
2023/08/18 08:49:33;;;;;;;;;;;27.00;67.10;;;;;;4989490;28;20016;-71
2023/08/18 08:52:03;;;;;;;;;;;27.10;66.40;;;;;;4990985;28;19930;-71
2023/08/18 08:54:31;;;;;;;;;;;27.20;66.00;;;;;;4990261;28;20346;-70
2023/08/18 08:56:59;;;;;;;;;;;27.30;65.50;;;;;;4991779;28;19956;-71
2023/08/18 08:59:28;;;;;;;;;;;27.40;65.90;;;;;;4991255;28;20034;-72
2023/08/18 09:01:55;;;;;;;;;;;27.40;65.80;;;;;;4988397;28;19976;-70
2023/08/18 09:04:23;;;;;;;;;;;27.60;65.40;;;;;;4989275;28;19925;-72
2023/08/18 09:06:50;;;;;;;;;;;27.60;65.60;;;;;;4989294;28;19926;-71
2023/08/18 09:09:18;;;;;;;;;;;27.80;65.00;;;;;;4990716;28;19936;-70
2023/08/18 09:11:46;;;;;;;;;;;27.80;64.50;;;;;;4991320;28;19933;-70
2023/08/18 09:14:13;;;;;;;;;;;27.90;64.50;;;;;;4990793;28;19926;-70
2023/08/18 09:16:44;;;;;;;;;;;27.90;64.90;;;;;;4987563;28;19934;-70
2023/08/18 09:19:12;;;;;;;;;;;28.00;65.10;;;;;;4987031;28;19933;-69
2023/08/18 09:21:39;;;;;;;;;;;28.10;64.30;;;;;;4987068;28;19937;-70
2023/08/18 09:24:06;;;;;;;;;;;28.10;64.40;;;;;;4988924;28;20036;-68
2023/08/18 09:26:34;;;;;;;;;;;28.20;64.10;;;;;;4990449;28;20052;-70
2023/08/18 09:29:01;;;;;;;;;;;28.30;63.80;;;;;;4988193;28;19961;-71
2023/08/18 09:31:29;;;;;;;;;;;28.40;63.00;;;;;;4989815;28;19996;-70
2023/08/18 09:33:58;;;;;;;;;;;28.50;63.30;;;;;;4989252;28;19984;-69
2023/08/18 09:36:26;;;;;;;;;;;28.60;63.50;;;;;;4990591;28;20100;-69
2023/08/18 09:38:54;;;;;;;;;;;28.60;63.40;;;;;;4989424;28;19925;-70
2023/08/18 09:41:21;;;;;;;;;;;28.70;63.10;;;;;;4990605;28;19925;-70
2023/08/18 09:43:48;;;;;;;;;;;28.80;62.50;;;;;;4988394;28;20059;-72
2023/08/18 09:46:17;;;;;;;;;;;28.80;62.40;;;;;;4989355;28;19937;-70
2023/08/18 09:48:45;;;;;;;;;;;28.80;62.40;;;;;;4989972;28;19926;-69
2023/08/18 09:51:16;;;;;;;;;;;29.00;62.40;;;;;;4989158;28;19961;-66
2023/08/18 09:53:50;;;;;;;;;;;29.00;62.30;;;;;;4990793;28;20036;-65
2023/08/18 09:56:23;;;;;;;;;;;29.10;62.60;;;;;;4990096;28;19980;-66
2023/08/18 09:58:54;;;;;;;;;;;29.10;62.00;;;;;;4989348;28;19953;-66
2023/08/18 10:01:22;;;;;;;;;;;29.20;61.50;;;;;;4989307;28;19992;-66
2023/08/18 10:03:50;;;;;;;;;;;29.30;61.70;;;;;;4989680;28;20427;-67
2023/08/18 10:06:19;;;;;;;;;;;29.30;61.60;;;;;;4990324;28;19926;-66
2023/08/18 10:08:46;;;;;;;;;;;29.40;61.60;;;;;;4990320;28;19930;-66
2023/08/18 10:11:14;;;;;;;;;;;29.40;61.30;;;;;;4987869;28;19926;-66
2023/08/18 10:13:41;;;;;;;;;;;29.50;61.80;;;;;;4989150;28;19940;-65
2023/08/18 10:16:08;;;;;;;;;;;29.50;61.00;;;;;;4988614;28;19973;-67
2023/08/18 10:18:35;;;;;;;;;;;29.60;61.20;;;;;;4972663;28;19934;-67
2023/08/18 10:21:03;;;;;;;;;;;29.70;61.20;;;;;;4972830;28;19961;-67
2023/08/18 10:23:33;;;;;;;;;;;29.70;60.90;;;;;;4990259;28;19930;-66
2023/08/18 10:26:03;;;;;;;;;;;29.80;60.90;;;;;;4984305;28;19937;-67
2023/08/18 10:28:33;;;;;;;;;;;29.80;60.50;;;;;;4988933;28;20020;-67
2023/08/18 10:31:05;;;;;;;;;;;29.80;60.60;;;;;;4987228;28;19996;-67
2023/08/18 10:33:35;;;;;;;;;;;29.80;60.10;;;;;;4989840;28;19926;-67
2023/08/18 10:36:03;;;;;;;;;;;30.00;60.10;;;;;;4989598;28;20370;-65
2023/08/18 10:38:33;;;;;;;;;;;30.00;59.20;;;;;;4990022;28;20023;-66
2023/08/18 10:41:00;;;;;;;;;;;30.10;59.70;;;;;;4987659;28;19934;-65
2023/08/18 10:43:29;;;;;;;;;;;30.20;59.50;;;;;;4987189;28;19937;-65
2023/08/18 10:46:00;;;;;;;;;;;30.20;59.40;;;;;;4988762;28;19929;-67
2023/08/18 10:48:32;;;;;;;;;;;30.20;58.90;;;;;;4989697;28;19925;-66
2023/08/18 10:50:59;;;;;;;;;;;30.20;58.90;;;;;;4989328;28;20288;-66
2023/08/18 10:53:27;;;;;;;;;;;30.30;58.80;;;;;;4989486;28;19926;-66
2023/08/18 10:55:56;;;;;;;;;;;30.40;58.80;;;;;;4988544;28;20340;-68
2023/08/18 10:58:23;;;;;;;;;;;30.40;59.00;;;;;;4987823;28;20024;-65
2023/08/18 11:00:51;;;;;;;;;;;30.30;58.60;;;;;;4989058;28;19995;-71
2023/08/18 11:03:19;;;;;;;;;;;30.40;58.50;;;;;;4988962;28;19930;-72
2023/08/18 11:05:46;;;;;;;;;;;30.40;58.20;;;;;;4989521;28;19936;-71
2023/08/18 11:08:14;;;;;;;;;;;30.50;58.70;;;;;;4987868;28;20017;-70
2023/08/18 11:10:42;;;;;;;;;;;30.50;57.90;;;;;;4988367;28;19937;-71
2023/08/18 11:13:21;;;;;;;;;;;30.50;57.40;;;;;;4988356;28;19949;-70
2023/08/18 11:15:49;;;;;;;;;;;30.50;57.60;;;;;;4986234;28;20151;-70
2023/08/18 11:18:16;;;;;;;;;;;30.60;57.20;;;;;;4988350;28;19930;-70
2023/08/18 11:20:44;;;;;;;;;;;30.60;56.70;;;;;;4989369;28;19977;-71
2023/08/18 11:23:11;;;;;;;;;;;30.60;57.50;;;;;;4989602;28;19941;-70
2023/08/18 11:25:38;;;;;;;;;;;30.60;57.70;;;;;;4994946;28;19930;-72
2023/08/18 11:28:05;;;;;;;;;;;30.70;57.30;;;;;;4993630;28;19930;-70
2023/08/18 11:30:34;;;;;;;;;;;30.70;56.50;;;;;;4995464;28;19961;-71
2023/08/18 11:33:01;;;;;;;;;;;30.70;56.50;;;;;;4994807;28;19933;-70
2023/08/18 11:35:30;;;;;;;;;;;30.80;56.50;;;;;;4994840;28;19984;-71
2023/08/18 11:37:57;;;;;;;;;;;30.70;55.90;;;;;;4994167;28;19925;-72
2023/08/18 11:40:25;;;;;;;;;;;30.80;55.90;;;;;;4994525;28;19941;-71
2023/08/18 11:42:52;;;;;;;;;;;30.80;55.90;;;;;;4993765;28;20288;-71
2023/08/18 11:45:20;;;;;;;;;;;30.80;55.60;;;;;;4994988;28;19929;-71
2023/08/18 11:47:57;;;;;;;;;;;30.90;54.10;;;;;;4995068;28;19937;-72
2023/08/18 11:50:29;;;;;;;;;;;30.90;54.20;;;;;;4994497;28;20013;-71
2023/08/18 11:52:57;;;;;;;;;;;30.80;53.60;;;;;;4994859;28;19926;-72
2023/08/18 11:55:31;;;;;;;;;;;30.80;54.20;;;;;;4994010;28;19926;-70
2023/08/18 11:57:59;;;;;;;;;;;30.90;54.20;;;;;;4993619;28;19929;-72
2023/08/18 12:00:31;;;;;;;;;;;30.80;54.20;;;;;;4995236;28;20416;-71
2023/08/18 12:03:00;;;;;;;;;;;30.80;54.60;;;;;;4994992;28;19964;-72
2023/08/18 12:05:27;;;;;;;;;;;30.80;54.60;;;;;;4994251;28;19930;-72
2023/08/18 12:07:55;;;;;;;;;;;30.80;54.70;;;;;;4994192;28;19926;-72
2023/08/18 12:10:22;;;;;;;;;;;30.80;54.90;;;;;;4993747;28;19929;-71
2023/08/18 12:12:53;;;;;;;;;;;30.80;54.10;;;;;;4994707;28;19969;-71
2023/08/18 12:15:21;;;;;;;;;;;30.90;54.50;;;;;;4994119;28;19934;-72
2023/08/18 12:17:48;;;;;;;;;;;30.80;54.10;;;;;;4995290;28;19925;-71
2023/08/18 12:20:18;;;;;;;;;;;30.80;53.70;;;;;;4994231;28;19933;-70
2023/08/18 12:22:46;;;;;;;;;;;30.80;53.10;;;;;;4994636;28;19926;-71
2023/08/18 12:25:13;;;;;;;;;;;30.80;53.30;;;;;;4994397;28;20385;-70
2023/08/18 12:27:41;;;;;;;;;;;30.90;52.90;;;;;;4995157;28;19972;-70
2023/08/18 12:30:09;;;;;;;;;;;30.90;53.50;;;;;;4994028;28;19929;-72
2023/08/18 12:32:36;;;;;;;;;;;30.80;53.30;;;;;;4994469;28;20381;-69
2023/08/18 12:35:04;;;;;;;;;;;30.80;53.00;;;;;;4991321;28;19926;-71
2023/08/18 12:37:34;;;;;;;;;;;30.80;53.50;;;;;;4991229;28;19940;-71
2023/08/18 12:40:02;;;;;;;;;;;30.80;54.90;;;;;;4991669;28;19988;-70
2023/08/18 12:42:30;;;;;;;;;;;30.60;55.00;;;;;;4990294;28;19930;-69
2023/08/18 12:44:57;;;;;;;;;;;30.70;54.90;;;;;;4986333;28;19937;-70
2023/08/18 12:47:24;;;;;;;;;;;30.70;53.60;;;;;;4988358;28;19926;-69
2023/08/18 12:49:51;;;;;;;;;;;30.70;53.70;;;;;;4989035;28;19926;-70
2023/08/18 12:52:18;;;;;;;;;;;30.70;52.80;;;;;;4987086;28;19929;-71
2023/08/18 12:54:48;;;;;;;;;;;30.80;54.30;;;;;;4991079;28;19930;-71
2023/08/18 12:57:15;;;;;;;;;;;30.80;53.70;;;;;;4990911;28;20507;-71
2023/08/18 12:59:44;;;;;;;;;;;30.70;53.60;;;;;;4990565;28;19933;-68
2023/08/18 13:02:11;;;;;;;;;;;30.60;53.30;;;;;;4989662;28;19934;-72
2023/08/18 13:04:38;;;;;;;;;;;30.60;53.20;;;;;;4988130;28;19926;-71
2023/08/18 13:07:08;;;;;;;;;;;30.70;52.60;;;;;;4990095;28;19934;-69
2023/08/18 13:09:38;;;;;;;;;;;30.60;53.90;;;;;;4988693;28;20028;-70
2023/08/18 13:12:06;;;;;;;;;;;30.50;55.10;;;;;;4991339;28;20412;-70
2023/08/18 13:14:34;;;;;;;;;;;30.50;54.50;;;;;;4990317;28;19984;-69
2023/08/18 13:17:01;;;;;;;;;;;30.50;54.20;;;;;;4990506;28;19972;-69
2023/08/18 13:19:30;;;;;;;;;;;30.50;54.20;;;;;;4990066;28;19930;-70
2023/08/18 13:21:57;;;;;;;;;;;30.40;53.50;;;;;;5005318;28;20009;-69
2023/08/18 13:24:25;;;;;;;;;;;30.40;55.20;;;;;;4989442;28;20361;-69
2023/08/18 13:26:52;;;;;;;;;;;30.30;55.30;;;;;;4990358;28;19932;-69
2023/08/18 13:29:21;;;;;;;;;;;30.30;54.70;;;;;;4990830;28;19930;-68
2023/08/18 13:31:48;;;;;;;;;;;30.20;54.40;;;;;;4990384;28;20024;-70
2023/08/18 13:34:15;;;;;;;;;;;30.30;53.70;;;;;;4990047;28;19930;-68
2023/08/18 13:36:43;;;;;;;;;;;30.20;53.90;;;;;;4990057;28;20455;-69
2023/08/18 13:39:18;;;;;;;;;;;30.20;53.70;;;;;;4991186;28;19929;-70
2023/08/18 13:41:46;;;;;;;;;;;30.20;53.80;;;;;;4989798;28;19956;-70
2023/08/18 13:44:13;;;;;;;;;;;30.20;55.70;;;;;;4988423;28;19934;-70
2023/08/18 13:46:43;;;;;;;;;;;30.10;56.00;;;;;;4988487;28;20349;-71
2023/08/18 13:49:11;;;;;;;;;;;30.00;55.70;;;;;;4989739;28;19930;-70
2023/08/18 13:51:38;;;;;;;;;;;30.00;55.00;;;;;;4989963;28;20361;-70
2023/08/18 13:54:05;;;;;;;;;;;30.10;54.10;;;;;;4989645;28;19941;-69
2023/08/18 13:56:32;;;;;;;;;;;30.10;53.80;;;;;;4990198;28;20381;-70
2023/08/18 13:59:00;;;;;;;;;;;30.00;55.00;;;;;;4988680;28;19980;-68
2023/08/18 14:01:28;;;;;;;;;;;30.00;55.40;;;;;;4989145;28;20056;-68
2023/08/18 14:03:59;;;;;;;;;;;30.00;55.10;;;;;;4989401;28;19949;-69
2023/08/18 14:06:26;;;;;;;;;;;29.90;54.60;;;;;;4989844;28;19929;-69
2023/08/18 14:08:53;;;;;;;;;;;29.90;54.30;;;;;;4989174;28;19940;-71
2023/08/18 14:11:20;;;;;;;;;;;30.00;54.40;;;;;;4989772;28;19930;-70
2023/08/18 14:13:47;;;;;;;;;;;29.90;54.30;;;;;;4989256;28;20084;-70
2023/08/18 14:16:15;;;;;;;;;;;29.90;55.00;;;;;;4989648;28;19933;-71
2023/08/18 14:18:42;;;;;;;;;;;29.80;55.10;;;;;;4988953;28;19930;-69
2023/08/18 14:21:10;;;;;;;;;;;29.80;55.50;;;;;;4990132;28;20025;-68
2023/08/18 14:23:37;;;;;;;;;;;29.80;56.00;;;;;;4988646;28;19933;-69
2023/08/18 14:26:05;;;;;;;;;;;29.70;56.60;;;;;;4989128;28;19938;-69